Time,TemperatureF,DewpointF,PressureIn,WindDirection,WindDirectionDegrees,WindSpeedMPH,WindSpeedGustMPH,Humidity,HourlyPrecipIn,Conditions,Clouds,dailyrainin,SolarRadiationWatts/m^2,SoftwareType,DateUTC
2013-09-03 00:00:00,70.4,66.3,29.80,SE,138,0.0,0.0,87,0.00,,,0.00,0,Wunderground v.1.15,2013-09-03 04:00:00,
2013-09-03 00:01:00,70.4,66.3,29.80,SE,138,0.0,0.0,87,0.00,,,0.00,0,Wunderground v.1.15,2013-09-03 04:01:00,
2013-09-03 00:02:00,70.4,66.3,29.80,SE,138,0.0,0.0,87,0.00,,,0.00,0,Wunderground v.1.15,2013-09-03 04:02:00,
2013-09-03 00:04:00,70.5,66.4,29.81,SE,138,0.0,0.0,87,0.00,,,0.00,0,Wunderground v.1.15,2013-09-03 04:04:00,
2013-09-03 00:05:00,70.5,66.4,29.81,SE,138,0.0,0.0,87,0.00,,,0.00,0,Wunderground v.1.15,2013-09-03 04:05:00,
2013-09-03 00:09:00,70.5,66.4,29.80,SE,138,0.0,0.0,87,0.00,,,0.00,0,Wunderground v.1.15,2013-09-03 04:09:00,
2013-09-03 00:15:00,70.6,66.5,29.80,SE,138,0.0,1.0,87,0.00,,,0.00,0,Wunderground v.1.15,2013-09-03 04:15:00,
2013-09-03 00:20:00,70.4,66.3,29.80,SE,138,0.0,0.0,87,0.00,,,0.00,0,Wunderground v.1.15,2013-09-03 04:20:00,
2013-09-03 00:22:00,70.4,66.3,29.80,SE,138,0.0,0.0,87,0.00,,,0.00,0,Wunderground v.1.15,2013-09-03 04:22:00,
2013-09-03 00:34:00,70.3,66.2,29.81,NW,326,2.0,4.0,87,0.00,,,0.00,0,Wunderground v.1.15,2013-09-03 04:34:00,
2013-09-03 00:40:00,70.5,66.4,29.81,NW,310,2.0,2.0,87,0.00,,,0.00,0,Wunderground v.1.15,2013-09-03 04:40:00,
2013-09-03 00:45:00,70.7,66.6,29.81,NW,304,1.0,3.0,87,0.00,,,0.00,0,Wunderground v.1.15,2013-09-03 04:45:00,
2013-09-03 00:51:00,70.7,66.6,29.81,NW,316,1.0,3.0,87,0.00,,,0.00,0,Wunderground v.1.15,2013-09-03 04:51:00,
2013-09-03 00:57:00,70.7,66.6,29.80,NW,316,0.0,3.0,87,0.00,,,0.00,0,Wunderground v.1.15,2013-09-03 04:57:00,
2013-09-03 01:02:00,70.6,66.5,29.80,NW,316,0.0,2.0,87,0.00,,,0.00,0,Wunderground v.1.15,2013-09-03 05:02:00,
2013-09-03 01:08:00,70.4,66.3,29.80,NW,316,0.0,2.0,87,0.00,,,0.00,0,Wunderground v.1.15,2013-09-03 05:08:00,
2013-09-03 01:14:00,70.4,66.3,29.79,NW,316,0.0,2.0,87,0.00,,,0.00,0,Wunderground v.1.15,2013-09-03 05:14:00,
2013-09-03 01:20:00,70.4,66.3,29.79,NW,316,0.0,2.0,87,0.00,,,0.00,0,Wunderground v.1.15,2013-09-03 05:20:00,
2013-09-03 01:25:00,70.3,66.2,29.79,NW,316,0.0,2.0,87,0.00,,,0.00,0,Wunderground v.1.15,2013-09-03 05:25:00,
2013-09-03 01:31:00,70.3,66.2,29.78,NW,316,0.0,2.0,87,0.00,,,0.00,0,Wunderground v.1.15,2013-09-03 05:31:00,
2013-09-03 01:37:00,70.2,66.1,29.78,NW,316,0.0,2.0,87,0.00,,,0.00,0,Wunderground v.1.15,2013-09-03 05:37:00,
2013-09-03 01:42:00,70.1,66.0,29.78,NW,316,1.0,2.0,87,0.00,,,0.00,0,Wunderground v.1.15,2013-09-03 05:42:00,
2013-09-03 01:48:00,70.1,66.0,29.79,NW,316,0.0,2.0,87,0.00,,,0.00,0,Wunderground v.1.15,2013-09-03 05:48:00,
2013-09-03 01:53:00,70.1,66.0,29.79,NW,316,0.0,2.0,87,0.00,,,0.00,0,Wunderground v.1.15,2013-09-03 05:53:00,
2013-09-03 01:59:00,70.0,66.0,29.79,NW,316,0.0,2.0,87,0.00,,,0.00,0,Wunderground v.1.15,2013-09-03 05:59:00,
2013-09-03 02:05:00,70.2,66.5,29.79,ESE,105,1.0,2.0,88,0.00,,,0.00,0,Wunderground v.1.15,2013-09-03 06:05:00,
2013-09-03 02:11:00,70.5,66.8,29.79,SE,134,1.0,1.0,88,0.00,,,0.00,0,Wunderground v.1.15,2013-09-03 06:11:00,
2013-09-03 02:17:00,70.8,67.1,29.78,ESE,115,1.0,2.0,88,0.00,,,0.00,0,Wunderground v.1.15,2013-09-03 06:17:00,
2013-09-03 02:22:00,71.0,67.3,29.79,ESE,115,0.0,0.0,88,0.00,,,0.00,0,Wunderground v.1.15,2013-09-03 06:22:00,
2013-09-03 02:28:00,71.1,67.4,29.78,ESE,115,0.0,1.0,88,0.00,,,0.00,0,Wunderground v.1.15,2013-09-03 06:28:00,
2013-09-03 02:34:00,71.0,67.3,29.79,ESE,115,0.0,0.0,88,0.00,,,0.00,0,Wunderground v.1.15,2013-09-03 06:34:00,
2013-09-03 02:39:00,70.9,67.2,29.78,ESE,115,0.0,0.0,88,0.00,,,0.00,0,Wunderground v.1.15,2013-09-03 06:39:00,
2013-09-03 02:45:00,70.8,67.1,29.78,ESE,115,0.0,0.0,88,0.00,,,0.00,0,Wunderground v.1.15,2013-09-03 06:45:00,
2013-09-03 02:50:00,70.6,66.9,29.78,ESE,115,0.0,0.0,88,0.00,,,0.00,0,Wunderground v.1.15,2013-09-03 06:50:00,
2013-09-03 02:56:00,70.6,66.9,29.79,ESE,115,0.0,1.0,88,0.00,,,0.00,0,Wunderground v.1.15,2013-09-03 06:56:00,
2013-09-03 03:02:00,70.5,66.8,29.78,ESE,115,0.0,2.0,88,0.00,,,0.00,0,Wunderground v.1.15,2013-09-03 07:02:00,
2013-09-03 03:08:00,70.5,66.8,29.78,ESE,115,0.0,2.0,88,0.00,,,0.00,0,Wunderground v.1.15,2013-09-03 07:08:00,
2013-09-03 03:13:00,70.5,66.8,29.78,ESE,115,0.0,2.0,88,0.00,,,0.00,0,Wunderground v.1.15,2013-09-03 07:13:00,
2013-09-03 03:19:00,70.6,66.9,29.78,ESE,115,0.0,2.0,88,0.00,,,0.00,0,Wunderground v.1.15,2013-09-03 07:19:00,
2013-09-03 03:25:00,70.7,67.0,29.78,ESE,115,0.0,2.0,88,0.00,,,0.00,0,Wunderground v.1.15,2013-09-03 07:25:00,
2013-09-03 03:31:00,70.8,67.1,29.78,ESE,115,1.0,2.0,88,0.00,,,0.00,0,Wunderground v.1.15,2013-09-03 07:31:00,
2013-09-03 03:36:00,70.8,67.1,29.79,NW,311,1.0,2.0,88,0.00,,,0.00,0,Wunderground v.1.15,2013-09-03 07:36:00,
2013-09-03 03:42:00,70.8,67.1,29.78,NNW,327,2.0,2.0,88,0.00,,,0.00,0,Wunderground v.1.15,2013-09-03 07:42:00,
2013-09-03 03:48:00,70.8,67.1,29.78,NNW,327,2.0,2.0,88,0.00,,,0.00,0,Wunderground v.1.15,2013-09-03 07:48:00,
2013-09-03 03:53:00,70.8,67.1,29.78,NNW,327,1.0,2.0,88,0.00,,,0.00,0,Wunderground v.1.15,2013-09-03 07:53:00,
2013-09-03 03:59:00,70.9,67.2,29.78,NNW,327,0.0,2.0,88,0.00,,,0.00,0,Wunderground v.1.15,2013-09-03 07:59:00,
2013-09-03 04:05:00,70.9,67.2,29.78,NNW,327,0.0,2.0,88,0.00,,,0.00,0,Wunderground v.1.15,2013-09-03 08:05:00,
2013-09-03 04:10:00,70.9,67.2,29.78,NNW,327,0.0,2.0,88,0.00,,,0.00,0,Wunderground v.1.15,2013-09-03 08:10:00,
2013-09-03 04:16:00,71.0,67.3,29.78,NNW,327,0.0,2.0,88,0.00,,,0.00,0,Wunderground v.1.15,2013-09-03 08:16:00,
2013-09-03 04:21:00,71.0,67.3,29.78,NNW,327,0.0,2.0,88,0.00,,,0.00,0,Wunderground v.1.15,2013-09-03 08:21:00,
2013-09-03 04:27:00,71.0,67.3,29.77,NNW,327,0.0,2.0,88,0.00,,,0.00,0,Wunderground v.1.15,2013-09-03 08:27:00,
2013-09-03 04:33:00,71.0,67.3,29.77,NNW,327,0.0,2.0,88,0.00,,,0.00,0,Wunderground v.1.15,2013-09-03 08:33:00,
2013-09-03 04:39:00,71.0,67.3,29.77,NNW,327,0.0,2.0,88,0.00,,,0.00,0,Wunderground v.1.15,2013-09-03 08:39:00,
2013-09-03 04:44:00,71.0,67.3,29.77,NNW,327,0.0,2.0,88,0.00,,,0.00,0,Wunderground v.1.15,2013-09-03 08:44:00,
2013-09-03 04:50:00,71.0,67.3,29.78,NNW,327,0.0,2.0,88,0.00,,,0.00,0,Wunderground v.1.15,2013-09-03 08:50:00,
2013-09-03 04:56:00,71.0,67.3,29.77,NNW,327,0.0,2.0,88,0.00,,,0.00,0,Wunderground v.1.15,2013-09-03 08:56:00,
2013-09-03 05:01:00,71.1,67.4,29.78,NNW,327,0.0,2.0,88,0.00,,,0.00,0,Wunderground v.1.15,2013-09-03 09:01:00,
2013-09-03 05:07:00,71.1,67.4,29.78,NNW,327,0.0,2.0,88,0.00,,,0.00,0,Wunderground v.1.15,2013-09-03 09:07:00,
2013-09-03 05:13:00,71.1,67.4,29.78,NNW,327,0.0,2.0,88,0.00,,,0.00,0,Wunderground v.1.15,2013-09-03 09:13:00,
2013-09-03 05:18:00,71.1,67.4,29.78,NNW,327,0.0,2.0,88,0.00,,,0.00,0,Wunderground v.1.15,2013-09-03 09:18:00,
2013-09-03 05:24:00,71.1,67.4,29.78,NNW,327,0.0,2.0,88,0.00,,,0.00,0,Wunderground v.1.15,2013-09-03 09:24:00,
2013-09-03 05:29:00,71.2,67.5,29.78,NNW,327,0.0,2.0,88,0.00,,,0.00,0,Wunderground v.1.15,2013-09-03 09:29:00,
2013-09-03 05:35:00,71.3,67.6,29.79,NNW,327,1.0,2.0,88,0.00,,,0.00,0,Wunderground v.1.15,2013-09-03 09:35:00,
2013-09-03 05:41:00,71.3,67.6,29.79,NNW,327,0.0,2.0,88,0.00,,,0.00,0,Wunderground v.1.15,2013-09-03 09:41:00,
2013-09-03 05:46:00,71.3,67.9,29.80,NNW,327,0.0,2.0,89,0.00,,,0.00,0,Wunderground v.1.15,2013-09-03 09:46:00,
2013-09-03 05:52:00,71.4,68.0,29.80,NNW,327,0.0,2.0,89,0.00,,,0.00,0,Wunderground v.1.15,2013-09-03 09:52:00,
2013-09-03 05:58:00,71.4,67.7,29.80,NNW,327,0.0,2.0,88,0.00,,,0.00,0,Wunderground v.1.15,2013-09-03 09:58:00,
2013-09-03 06:03:00,71.4,67.7,29.80,NNW,327,0.0,2.0,88,0.00,,,0.00,0,Wunderground v.1.15,2013-09-03 10:03:00,
2013-09-03 06:09:00,71.4,67.7,29.80,NNW,327,0.0,2.0,88,0.00,,,0.00,0,Wunderground v.1.15,2013-09-03 10:09:00,
2013-09-03 06:14:00,71.4,68.0,29.81,NNW,327,0.0,2.0,89,0.00,,,0.00,0,Wunderground v.1.15,2013-09-03 10:14:00,
2013-09-03 06:20:00,71.4,67.7,29.80,NNW,327,0.0,2.0,88,0.00,,,0.00,0,Wunderground v.1.15,2013-09-03 10:20:00,
2013-09-03 06:26:00,71.4,67.7,29.80,NNW,327,0.0,2.0,88,0.00,,,0.00,0,Wunderground v.1.15,2013-09-03 10:26:00,
2013-09-03 06:31:00,71.3,67.9,29.80,NNW,327,0.0,2.0,89,0.00,,,0.00,0,Wunderground v.1.15,2013-09-03 10:31:00,
2013-09-03 06:37:00,71.3,67.9,29.81,NNW,327,1.0,2.0,89,0.00,,,0.00,0,Wunderground v.1.15,2013-09-03 10:37:00,
2013-09-03 06:42:00,71.3,67.9,29.81,NNW,327,1.0,2.0,89,0.00,,,0.00,0,Wunderground v.1.15,2013-09-03 10:42:00,
2013-09-03 06:48:00,71.3,67.9,29.81,NNW,327,1.0,2.0,89,0.00,,,0.00,7,Wunderground v.1.15,2013-09-03 10:48:00,
2013-09-03 06:53:00,71.3,67.9,29.81,NNW,327,1.0,2.0,89,0.00,,,0.00,7,Wunderground v.1.15,2013-09-03 10:53:00,
2013-09-03 06:59:00,71.4,68.0,29.81,NNW,327,1.0,3.0,89,0.00,,,0.00,11,Wunderground v.1.15,2013-09-03 10:59:00,
2013-09-03 07:04:00,71.3,67.9,29.82,WNW,286,2.0,3.0,89,0.00,,,0.00,11,Wunderground v.1.15,2013-09-03 11:04:00,
2013-09-03 07:10:00,71.3,67.9,29.82,WNW,298,2.0,2.0,89,0.00,,,0.00,16,Wunderground v.1.15,2013-09-03 11:10:00,
2013-09-03 07:16:00,71.2,67.8,29.82,NW,315,2.0,2.0,89,0.00,,,0.00,21,Wunderground v.1.15,2013-09-03 11:16:00,
2013-09-03 07:21:00,71.1,67.7,29.82,NW,317,1.0,2.0,89,0.00,,,0.00,33,Wunderground v.1.15,2013-09-03 11:21:00,
2013-09-03 07:27:00,71.2,67.8,29.83,NW,317,1.0,2.0,89,0.00,,,0.00,70,Wunderground v.1.15,2013-09-03 11:27:00,
2013-09-03 07:33:00,71.2,67.8,29.83,NW,317,1.0,2.0,89,0.00,,,0.00,83,Wunderground v.1.15,2013-09-03 11:33:00,
2013-09-03 07:38:00,71.3,67.9,29.83,NW,317,1.0,2.0,89,0.00,,,0.00,51,Wunderground v.1.15,2013-09-03 11:38:00,
2013-09-03 07:44:00,71.3,67.9,29.84,NW,317,1.0,2.0,89,0.00,,,0.00,49,Wunderground v.1.15,2013-09-03 11:44:00,
2013-09-03 07:49:00,71.3,67.9,29.84,NW,317,0.0,2.0,89,0.00,,,0.00,44,Wunderground v.1.15,2013-09-03 11:49:00,
2013-09-03 07:55:00,71.1,67.7,29.84,NW,317,1.0,2.0,89,0.00,,,0.00,53,Wunderground v.1.15,2013-09-03 11:55:00,
2013-09-03 08:01:00,71.1,67.7,29.84,NW,317,1.0,2.0,89,0.00,,,0.00,63,Wunderground v.1.15,2013-09-03 12:01:00,
2013-09-03 08:06:00,71.2,67.8,29.84,NW,317,0.0,2.0,89,0.00,,,0.00,40,Wunderground v.1.15,2013-09-03 12:06:00,
2013-09-03 08:12:00,71.1,67.7,29.84,NW,317,0.0,2.0,89,0.00,,,0.00,44,Wunderground v.1.15,2013-09-03 12:12:00,
2013-09-03 08:18:00,71.1,67.7,29.83,NW,317,1.0,2.0,89,0.00,,,0.00,63,Wunderground v.1.15,2013-09-03 12:18:00,
2013-09-03 08:23:00,71.1,67.7,29.83,NW,317,1.0,2.0,89,0.00,,,0.00,77,Wunderground v.1.15,2013-09-03 12:23:00,
2013-09-03 08:29:00,71.2,67.8,29.83,NW,317,1.0,2.0,89,0.00,,,0.00,116,Wunderground v.1.15,2013-09-03 12:29:00,
2013-09-03 08:34:00,71.3,67.9,29.83,NW,312,1.0,3.0,89,0.00,,,0.00,121,Wunderground v.1.15,2013-09-03 12:34:00,
2013-09-03 08:40:00,71.5,68.1,29.84,WNW,297,2.0,2.0,89,0.00,,,0.00,107,Wunderground v.1.15,2013-09-03 12:40:00,
2013-09-03 08:46:00,71.3,67.9,29.84,WNW,299,2.0,3.0,89,0.00,,,0.00,179,Wunderground v.1.15,2013-09-03 12:46:00,
2013-09-03 08:51:00,71.6,68.2,29.84,West,271,3.0,4.0,89,0.00,,,0.00,192,Wunderground v.1.15,2013-09-03 12:51:00,
2013-09-03 08:57:00,71.8,68.4,29.84,WNW,291,3.0,5.0,89,0.00,,,0.00,185,Wunderground v.1.15,2013-09-03 12:57:00,
2013-09-03 09:03:00,71.7,68.0,29.84,NW,321,3.0,4.0,88,0.00,,,0.00,156,Wunderground v.1.15,2013-09-03 13:03:00,
2013-09-03 09:08:00,71.6,67.9,29.84,NW,306,3.0,4.0,88,0.00,,,0.00,193,Wunderground v.1.15,2013-09-03 13:08:00,
2013-09-03 09:14:00,71.9,67.8,29.84,NW,311,3.0,5.0,87,0.00,,,0.00,439,Wunderground v.1.15,2013-09-03 13:14:00,
2013-09-03 09:20:00,72.2,67.8,29.85,NW,308,3.0,6.0,86,0.00,,,0.00,144,Wunderground v.1.15,2013-09-03 13:20:00,
2013-09-03 09:25:00,72.4,67.6,29.85,NW,315,3.0,6.0,85,0.00,,,0.00,220,Wunderground v.1.15,2013-09-03 13:25:00,
2013-09-03 09:31:00,73.0,67.9,29.85,NW,325,3.0,3.0,84,0.00,,,0.00,443,Wunderground v.1.15,2013-09-03 13:31:00,
2013-09-03 09:37:00,73.3,68.2,29.85,WNW,300,3.0,4.0,84,0.00,,,0.00,313,Wunderground v.1.15,2013-09-03 13:37:00,
2013-09-03 09:42:00,73.8,68.3,29.85,NW,305,2.0,3.0,83,0.00,,,0.00,601,Wunderground v.1.15,2013-09-03 13:42:00,
2013-09-03 09:48:00,74.4,68.9,29.85,NW,308,3.0,6.0,83,0.00,,,0.00,622,Wunderground v.1.15,2013-09-03 13:48:00,
2013-09-03 09:54:00,74.0,68.2,29.85,NNW,342,5.0,10.0,82,0.00,,,0.00,202,Wunderground v.1.15,2013-09-03 13:54:00,
2013-09-03 09:59:00,73.7,67.5,29.85,WNW,303,5.0,10.0,81,0.00,,,0.00,213,Wunderground v.1.15,2013-09-03 13:59:00,
2013-09-03 10:05:00,73.5,67.3,29.85,NNW,329,4.0,9.0,81,0.00,,,0.00,304,Wunderground v.1.15,2013-09-03 14:05:00,
2013-09-03 10:11:00,73.1,66.9,29.86,NW,323,5.0,5.0,81,0.00,,,0.00,146,Wunderground v.1.15,2013-09-03 14:11:00,
2013-09-03 10:16:00,72.9,66.7,29.86,NW,309,4.0,6.0,81,0.00,,,0.00,114,Wunderground v.1.15,2013-09-03 14:16:00,
2013-09-03 10:22:00,72.5,66.3,29.86,NNW,346,3.0,7.0,81,0.00,,,0.00,148,Wunderground v.1.15,2013-09-03 14:22:00,
2013-09-03 10:27:00,72.2,65.7,29.86,NW,316,3.0,7.0,80,0.00,,,0.00,169,Wunderground v.1.15,2013-09-03 14:27:00,
2013-09-03 10:33:00,72.1,65.2,29.86,NW,312,2.0,3.0,79,0.00,,,0.00,220,Wunderground v.1.15,2013-09-03 14:33:00,
2013-09-03 10:39:00,72.3,65.8,29.86,NW,311,1.0,5.0,80,0.00,,,0.00,350,Wunderground v.1.15,2013-09-03 14:39:00,
2013-09-03 10:44:00,72.7,65.8,29.86,NW,308,2.0,5.0,79,0.00,,,0.00,468,Wunderground v.1.15,2013-09-03 14:44:00,
2013-09-03 10:50:00,73.1,65.1,29.86,WNW,303,4.0,8.0,76,0.00,,,0.00,510,Wunderground v.1.15,2013-09-03 14:50:00,
2013-09-03 10:56:00,73.7,66.0,29.87,WNW,291,6.0,10.0,77,0.00,,,0.00,584,Wunderground v.1.15,2013-09-03 14:56:00,
2013-09-03 11:01:00,73.7,64.5,29.87,WNW,292,6.0,6.0,73,0.00,,,0.00,385,Wunderground v.1.15,2013-09-03 15:01:00,
2013-09-03 11:07:00,73.5,64.3,29.87,NW,318,6.0,8.0,73,0.00,,,0.00,399,Wunderground v.1.15,2013-09-03 15:07:00,
2013-09-03 11:12:00,73.9,64.7,29.87,NNW,329,5.0,10.0,73,0.00,,,0.00,693,Wunderground v.1.15,2013-09-03 15:12:00,
2013-09-03 11:18:00,74.2,64.6,29.87,WNW,302,5.0,10.0,72,0.00,,,0.00,891,Wunderground v.1.15,2013-09-03 15:18:00,
2013-09-03 11:24:00,74.5,64.5,29.87,NW,320,4.0,4.0,71,0.00,,,0.00,415,Wunderground v.1.15,2013-09-03 15:24:00,
2013-09-03 11:29:00,75.2,65.6,29.87,WNW,300,2.0,8.0,72,0.00,,,0.00,900,Wunderground v.1.15,2013-09-03 15:29:00,
2013-09-03 11:35:00,75.3,65.2,29.87,NW,309,3.0,7.0,71,0.00,,,0.00,860,Wunderground v.1.15,2013-09-03 15:35:00,
2013-09-03 11:41:00,75.7,64.4,29.87,NNW,348,4.0,5.0,68,0.00,,,0.00,960,Wunderground v.1.15,2013-09-03 15:41:00,
2013-09-03 11:47:00,75.5,64.6,29.87,NNW,331,5.0,8.0,69,0.00,,,0.00,418,Wunderground v.1.15,2013-09-03 15:47:00,
2013-09-03 11:52:00,75.4,64.9,29.87,WNW,286,5.0,7.0,70,0.00,,,0.00,930,Wunderground v.1.15,2013-09-03 15:52:00,
2013-09-03 11:58:00,75.1,64.6,29.87,NW,317,4.0,7.0,70,0.00,,,0.00,795,Wunderground v.1.15,2013-09-03 15:58:00,
2013-09-03 12:04:00,75.1,64.6,29.87,WNW,296,4.0,9.0,70,0.00,,,0.00,800,Wunderground v.1.15,2013-09-03 16:04:00,
2013-09-03 12:10:00,75.3,64.0,29.86,WNW,293,5.0,5.0,68,0.00,,,0.00,882,Wunderground v.1.15,2013-09-03 16:10:00,
2013-09-03 12:15:00,75.3,63.6,29.86,WNW,302,5.0,10.0,67,0.00,,,0.00,737,Wunderground v.1.15,2013-09-03 16:15:00,
2013-09-03 12:21:00,75.1,63.4,29.86,NNW,338,5.0,5.0,67,0.00,,,0.00,851,Wunderground v.1.15,2013-09-03 16:21:00,
2013-09-03 12:27:00,75.2,64.3,29.86,West,281,5.0,6.0,69,0.00,,,0.00,833,Wunderground v.1.15,2013-09-03 16:27:00,
2013-09-03 12:32:00,75.7,65.6,29.86,NW,307,4.0,5.0,71,0.00,,,0.00,831,Wunderground v.1.15,2013-09-03 16:32:00,
2013-09-03 12:38:00,76.2,65.3,29.86,NW,317,3.0,6.0,69,0.00,,,0.00,833,Wunderground v.1.15,2013-09-03 16:38:00,
2013-09-03 12:44:00,76.4,65.1,29.86,NNW,327,3.0,6.0,68,0.00,,,0.00,835,Wunderground v.1.15,2013-09-03 16:44:00,
2013-09-03 12:50:00,76.7,64.9,29.86,West,275,4.0,4.0,67,0.00,,,0.00,868,Wunderground v.1.15,2013-09-03 16:50:00,
2013-09-03 12:55:00,76.7,65.8,29.86,WNW,290,4.0,9.0,69,0.00,,,0.00,248,Wunderground v.1.15,2013-09-03 16:55:00,
2013-09-03 13:01:00,76.7,65.3,29.86,NW,319,4.0,6.0,68,0.00,,,0.00,923,Wunderground v.1.15,2013-09-03 17:01:00,
2013-09-03 13:07:00,77.1,65.3,29.86,NW,317,3.0,6.0,67,0.00,,,0.00,868,Wunderground v.1.15,2013-09-03 17:07:00,
2013-09-03 13:13:00,77.6,65.3,29.86,NW,316,4.0,6.0,66,0.00,,,0.00,898,Wunderground v.1.15,2013-09-03 17:13:00,
2013-09-03 13:18:00,77.6,65.3,29.86,NW,325,5.0,12.0,66,0.00,,,0.00,974,Wunderground v.1.15,2013-09-03 17:18:00,
2013-09-03 13:24:00,78.2,65.9,29.86,NW,308,5.0,7.0,66,0.00,,,0.00,628,Wunderground v.1.15,2013-09-03 17:24:00,
2013-09-03 13:30:00,77.6,65.8,29.86,WNW,295,5.0,5.0,67,0.00,,,0.00,276,Wunderground v.1.15,2013-09-03 17:30:00,
2013-09-03 13:35:00,77.8,65.1,29.86,NNW,327,4.0,6.0,65,0.00,,,0.00,912,Wunderground v.1.15,2013-09-03 17:35:00,
2013-09-03 13:41:00,78.0,64.4,29.85,SW,215,5.0,5.0,63,0.00,,,0.00,986,Wunderground v.1.15,2013-09-03 17:41:00,
2013-09-03 13:47:00,77.9,64.3,29.86,WNW,301,5.0,8.0,63,0.00,,,0.00,225,Wunderground v.1.15,2013-09-03 17:47:00,
2013-09-03 13:53:00,77.5,64.4,29.86,NW,310,5.0,5.0,64,0.00,,,0.00,963,Wunderground v.1.15,2013-09-03 17:53:00,
2013-09-03 13:58:00,77.6,63.5,29.86,NW,308,4.0,7.0,62,0.00,,,0.00,703,Wunderground v.1.15,2013-09-03 17:58:00,
2013-09-03 14:04:00,77.7,63.6,29.85,WSW,253,4.0,5.0,62,0.00,,,0.00,854,Wunderground v.1.15,2013-09-03 18:04:00,
2013-09-03 14:10:00,78.0,63.9,29.85,WNW,288,5.0,5.0,62,0.00,,,0.00,854,Wunderground v.1.15,2013-09-03 18:10:00,
2013-09-03 14:15:00,78.0,64.4,29.85,WNW,292,4.0,6.0,63,0.00,,,0.00,287,Wunderground v.1.15,2013-09-03 18:15:00,
2013-09-03 14:21:00,78.1,64.5,29.85,NW,317,4.0,4.0,63,0.00,,,0.00,218,Wunderground v.1.15,2013-09-03 18:21:00,
2013-09-03 14:27:00,78.0,63.9,29.85,WSW,244,4.0,7.0,62,0.00,,,0.00,773,Wunderground v.1.15,2013-09-03 18:27:00,
2013-09-03 14:33:00,77.9,63.8,29.85,NW,313,4.0,4.0,62,0.00,,,0.00,183,Wunderground v.1.15,2013-09-03 18:33:00,
2013-09-03 14:38:00,77.5,63.5,29.85,NW,320,4.0,5.0,62,0.00,,,0.00,290,Wunderground v.1.15,2013-09-03 18:38:00,
2013-09-03 14:44:00,77.3,63.7,29.85,NNW,346,3.0,4.0,63,0.00,,,0.00,323,Wunderground v.1.15,2013-09-03 18:44:00,
2013-09-03 14:50:00,77.7,63.2,29.84,NW,306,4.0,4.0,61,0.00,,,0.00,343,Wunderground v.1.15,2013-09-03 18:50:00,
2013-09-03 14:56:00,78.7,63.6,29.84,NNW,344,5.0,10.0,60,0.00,,,0.00,835,Wunderground v.1.15,2013-09-03 18:56:00,
2013-09-03 15:01:00,79.3,63.2,29.85,WNW,302,6.0,10.0,58,0.00,,,0.00,766,Wunderground v.1.15,2013-09-03 19:01:00,
2013-09-03 15:07:00,79.4,61.8,29.84,WSW,250,7.0,11.0,55,0.00,,,0.00,705,Wunderground v.1.15,2013-09-03 19:07:00,
2013-09-03 15:13:00,79.9,62.3,29.84,WNW,300,6.0,8.0,55,0.00,,,0.00,740,Wunderground v.1.15,2013-09-03 19:13:00,
2013-09-03 15:18:00,79.5,63.4,29.84,NW,318,6.0,10.0,58,0.00,,,0.00,701,Wunderground v.1.15,2013-09-03 19:18:00,
2013-09-03 15:24:00,78.7,61.7,29.84,WSW,258,6.0,9.0,56,0.00,,,0.00,165,Wunderground v.1.15,2013-09-03 19:24:00,
2013-09-03 15:30:00,78.9,62.4,29.84,WNW,284,5.0,6.0,57,0.00,,,0.00,165,Wunderground v.1.15,2013-09-03 19:30:00,
2013-09-03 15:35:00,78.8,61.8,29.84,West,279,5.0,8.0,56,0.00,,,0.00,649,Wunderground v.1.15,2013-09-03 19:35:00,
2013-09-03 15:41:00,79.1,61.0,29.84,WSW,245,5.0,10.0,54,0.00,,,0.00,606,Wunderground v.1.15,2013-09-03 19:41:00,
2013-09-03 15:47:00,79.4,61.8,29.84,West,271,6.0,10.0,55,0.00,,,0.00,573,Wunderground v.1.15,2013-09-03 19:47:00,
2013-09-03 15:52:00,79.5,60.9,29.84,NW,306,6.0,10.0,53,0.00,,,0.00,582,Wunderground v.1.15,2013-09-03 19:52:00,
2013-09-03 15:58:00,79.3,61.2,29.84,WNW,285,6.0,10.0,54,0.00,,,0.00,448,Wunderground v.1.15,2013-09-03 19:58:00,
2013-09-03 16:04:00,79.4,60.8,29.83,West,269,5.0,6.0,53,0.00,,,0.00,540,Wunderground v.1.15,2013-09-03 20:04:00,
2013-09-03 16:09:00,79.3,62.2,29.84,NW,306,6.0,7.0,56,0.00,,,0.00,545,Wunderground v.1.15,2013-09-03 20:09:00,
2013-09-03 16:15:00,79.3,60.7,29.84,West,268,7.0,9.0,53,0.00,,,0.00,478,Wunderground v.1.15,2013-09-03 20:15:00,
2013-09-03 16:21:00,79.2,60.6,29.84,West,274,6.0,7.0,53,0.00,,,0.00,506,Wunderground v.1.15,2013-09-03 20:21:00,
2013-09-03 16:27:00,79.2,61.1,29.84,WSW,257,5.0,9.0,54,0.00,,,0.00,459,Wunderground v.1.15,2013-09-03 20:27:00,
2013-09-03 16:32:00,79.4,61.8,29.84,NW,320,4.0,7.0,55,0.00,,,0.00,431,Wunderground v.1.15,2013-09-03 20:32:00,
2013-09-03 16:38:00,79.4,61.3,29.84,WNW,294,4.0,7.0,54,0.00,,,0.00,438,Wunderground v.1.15,2013-09-03 20:38:00,
2013-09-03 16:44:00,79.3,61.7,29.84,NW,306,4.0,7.0,55,0.00,,,0.00,251,Wunderground v.1.15,2013-09-03 20:44:00,
2013-09-03 16:50:00,78.6,61.1,29.84,NW,325,5.0,5.0,55,0.00,,,0.00,239,Wunderground v.1.15,2013-09-03 20:50:00,
2013-09-03 16:55:00,78.8,63.3,29.84,WNW,282,4.0,7.0,59,0.00,,,0.00,424,Wunderground v.1.15,2013-09-03 20:55:00,
2013-09-03 17:01:00,79.1,61.5,29.85,WNW,296,5.0,5.0,55,0.00,,,0.00,404,Wunderground v.1.15,2013-09-03 21:01:00,
2013-09-03 17:07:00,79.2,60.6,29.85,West,267,6.0,7.0,53,0.00,,,0.00,388,Wunderground v.1.15,2013-09-03 21:07:00,
2013-09-03 17:13:00,79.2,59.5,29.85,WNW,296,6.0,7.0,51,0.00,,,0.00,359,Wunderground v.1.15,2013-09-03 21:13:00,
2013-09-03 17:18:00,79.1,60.5,29.85,NW,313,6.0,8.0,53,0.00,,,0.00,341,Wunderground v.1.15,2013-09-03 21:18:00,
2013-09-03 17:24:00,78.9,60.3,29.85,WNW,285,7.0,8.0,53,0.00,,,0.00,316,Wunderground v.1.15,2013-09-03 21:24:00,
2013-09-03 17:30:00,78.9,61.4,29.85,WNW,294,6.0,6.0,55,0.00,,,0.00,306,Wunderground v.1.15,2013-09-03 21:30:00,
2013-09-03 17:35:00,79.1,61.0,29.85,WNW,294,5.0,6.0,54,0.00,,,0.00,283,Wunderground v.1.15,2013-09-03 21:35:00,
2013-09-03 17:41:00,78.8,61.3,29.85,NW,305,4.0,6.0,55,0.00,,,0.00,265,Wunderground v.1.15,2013-09-03 21:41:00,
2013-09-03 17:46:00,78.6,61.1,29.85,WSW,257,5.0,7.0,55,0.00,,,0.00,243,Wunderground v.1.15,2013-09-03 21:46:00,
2013-09-03 17:52:00,78.5,61.0,29.86,WNW,298,5.0,8.0,55,0.00,,,0.00,213,Wunderground v.1.15,2013-09-03 21:52:00,
2013-09-03 17:57:00,78.5,61.5,29.86,NW,313,4.0,8.0,56,0.00,,,0.00,193,Wunderground v.1.15,2013-09-03 21:57:00,
2013-09-03 18:03:00,78.3,59.8,29.86,WNW,293,4.0,9.0,53,0.00,,,0.00,171,Wunderground v.1.15,2013-09-03 22:03:00,
2013-09-03 18:08:00,78.2,60.7,29.86,NW,308,5.0,9.0,55,0.00,,,0.00,155,Wunderground v.1.15,2013-09-03 22:08:00,
2013-09-03 18:14:00,78.0,60.0,29.86,West,261,5.0,8.0,54,0.00,,,0.00,132,Wunderground v.1.15,2013-09-03 22:14:00,
2013-09-03 18:20:00,77.5,60.1,29.87,NW,322,4.0,5.0,55,0.00,,,0.00,30,Wunderground v.1.15,2013-09-03 22:20:00,
2013-09-03 18:26:00,76.9,60.5,29.87,NW,309,3.0,5.0,57,0.00,,,0.00,88,Wunderground v.1.15,2013-09-03 22:26:00,
2013-09-03 18:31:00,76.6,60.2,29.87,West,273,3.0,4.0,57,0.00,,,0.00,70,Wunderground v.1.15,2013-09-03 22:31:00,
2013-09-03 18:37:00,75.9,60.1,29.87,NW,317,3.0,5.0,58,0.00,,,0.00,21,Wunderground v.1.15,2013-09-03 22:37:00,
2013-09-03 18:43:00,75.0,60.6,29.87,WNW,300,3.0,4.0,61,0.00,,,0.00,19,Wunderground v.1.15,2013-09-03 22:43:00,
2013-09-03 18:48:00,74.5,60.6,29.87,WNW,294,2.0,4.0,62,0.00,,,0.00,26,Wunderground v.1.15,2013-09-03 22:48:00,
2013-09-03 18:54:00,74.0,60.6,29.87,NW,310,3.0,3.0,63,0.00,,,0.00,23,Wunderground v.1.15,2013-09-03 22:54:00,
2013-09-03 19:00:00,73.6,60.7,29.88,NW,311,2.0,2.0,64,0.00,,,0.00,21,Wunderground v.1.15,2013-09-03 23:00:00,
2013-09-03 19:06:00,73.1,60.6,29.88,NW,311,1.0,2.0,65,0.00,,,0.00,18,Wunderground v.1.15,2013-09-03 23:06:00,
2013-09-03 19:11:00,72.7,61.1,29.88,NW,311,1.0,2.0,67,0.00,,,0.00,12,Wunderground v.1.15,2013-09-03 23:11:00,
2013-09-03 19:17:00,72.4,60.8,29.88,NW,311,0.0,2.0,67,0.00,,,0.00,9,Wunderground v.1.15,2013-09-03 23:17:00,
2013-09-03 19:23:00,72.1,61.0,29.88,North,360,1.0,2.0,68,0.00,,,0.00,5,Wunderground v.1.15,2013-09-03 23:23:00,
2013-09-03 19:28:00,71.9,60.8,29.89,NW,319,1.0,2.0,68,0.00,,,0.00,0,Wunderground v.1.15,2013-09-03 23:28:00,
2013-09-03 19:34:00,71.1,61.2,29.89,NW,319,1.0,2.0,71,0.00,,,0.00,0,Wunderground v.1.15,2013-09-03 23:34:00,
2013-09-03 19:40:00,70.6,61.1,29.89,NW,319,0.0,2.0,72,0.00,,,0.00,0,Wunderground v.1.15,2013-09-03 23:40:00,
2013-09-03 19:46:00,70.3,61.2,29.89,NW,319,0.0,2.0,73,0.00,,,0.00,0,Wunderground v.1.15,2013-09-03 23:46:00,
2013-09-03 19:52:00,69.9,61.6,29.89,NW,319,0.0,2.0,75,0.00,,,0.00,0,Wunderground v.1.15,2013-09-03 23:52:00,
2013-09-03 19:58:00,69.5,60.8,29.90,NW,319,0.0,2.0,74,0.00,,,0.00,0,Wunderground v.1.15,2013-09-03 23:58:00,
2013-09-03 20:03:00,69.0,60.7,29.90,NW,319,0.0,2.0,75,0.00,,,0.00,0,Wunderground v.1.15,2013-09-04 00:03:00,
2013-09-03 20:09:00,68.6,60.7,29.90,NW,319,0.0,2.0,76,0.00,,,0.00,0,Wunderground v.1.15,2013-09-04 00:09:00,
2013-09-03 20:15:00,68.2,60.7,29.90,NW,319,0.0,2.0,77,0.00,,,0.00,0,Wunderground v.1.15,2013-09-04 00:15:00,
2013-09-03 20:20:00,67.9,60.8,29.91,NW,319,0.0,2.0,78,0.00,,,0.00,0,Wunderground v.1.15,2013-09-04 00:20:00,
2013-09-03 20:26:00,67.7,60.2,29.91,NW,319,0.0,2.0,77,0.00,,,0.00,0,Wunderground v.1.15,2013-09-04 00:26:00,
2013-09-03 20:32:00,67.3,60.2,29.91,NW,319,0.0,2.0,78,0.00,,,0.00,0,Wunderground v.1.15,2013-09-04 00:32:00,
2013-09-03 20:37:00,67.0,60.3,29.91,NW,319,0.0,2.0,79,0.00,,,0.00,0,Wunderground v.1.15,2013-09-04 00:37:00,
2013-09-03 20:43:00,66.8,60.1,29.91,NW,319,0.0,2.0,79,0.00,,,0.00,0,Wunderground v.1.15,2013-09-04 00:43:00,
2013-09-03 20:49:00,66.5,60.1,29.91,NW,319,0.0,2.0,80,0.00,,,0.00,0,Wunderground v.1.15,2013-09-04 00:49:00,
2013-09-03 20:55:00,66.2,59.8,29.92,NW,319,0.0,2.0,80,0.00,,,0.00,0,Wunderground v.1.15,2013-09-04 00:55:00,
2013-09-03 21:00:00,65.7,59.4,29.92,NW,319,0.0,2.0,80,0.00,,,0.00,0,Wunderground v.1.15,2013-09-04 01:00:00,
2013-09-03 21:06:00,65.4,59.4,29.92,NW,319,0.0,2.0,81,0.00,,,0.00,0,Wunderground v.1.15,2013-09-04 01:06:00,
2013-09-03 21:12:00,65.0,59.0,29.93,NW,319,0.0,2.0,81,0.00,,,0.00,0,Wunderground v.1.15,2013-09-04 01:12:00,
2013-09-03 21:18:00,64.6,58.6,29.93,NW,319,0.0,2.0,81,0.00,,,0.00,0,Wunderground v.1.15,2013-09-04 01:18:00,
2013-09-03 21:23:00,64.4,58.8,29.93,NW,319,0.0,2.0,82,0.00,,,0.00,0,Wunderground v.1.15,2013-09-04 01:23:00,
2013-09-03 21:29:00,64.3,58.7,29.93,NW,319,0.0,2.0,82,0.00,,,0.00,0,Wunderground v.1.15,2013-09-04 01:29:00,
2013-09-03 21:35:00,64.1,58.5,29.93,NW,319,0.0,2.0,82,0.00,,,0.00,0,Wunderground v.1.15,2013-09-04 01:35:00,
2013-09-03 21:41:00,64.0,58.4,29.93,NW,319,0.0,2.0,82,0.00,,,0.00,0,Wunderground v.1.15,2013-09-04 01:41:00,
2013-09-03 21:46:00,63.9,58.3,29.94,NW,319,0.0,2.0,82,0.00,,,0.00,0,Wunderground v.1.15,2013-09-04 01:46:00,
2013-09-03 21:52:00,63.7,58.4,29.94,NW,319,0.0,2.0,83,0.00,,,0.00,0,Wunderground v.1.15,2013-09-04 01:52:00,
2013-09-03 21:58:00,63.5,58.2,29.94,NW,319,0.0,2.0,83,0.00,,,0.00,0,Wunderground v.1.15,2013-09-04 01:58:00,
2013-09-03 22:03:00,63.4,58.1,29.94,NW,319,0.0,2.0,83,0.00,,,0.00,0,Wunderground v.1.15,2013-09-04 02:03:00,
2013-09-03 22:08:00,63.3,58.0,29.94,NW,319,0.0,2.0,83,0.00,,,0.00,0,Wunderground v.1.15,2013-09-04 02:08:00,
2013-09-03 22:14:00,63.3,57.7,29.94,NW,319,0.0,2.0,82,0.00,,,0.00,0,Wunderground v.1.15,2013-09-04 02:14:00,
2013-09-03 22:20:00,63.8,58.2,29.94,NW,319,0.0,2.0,82,0.00,,,0.00,0,Wunderground v.1.15,2013-09-04 02:20:00,
2013-09-03 22:26:00,64.3,58.3,29.95,NW,314,0.0,3.0,81,0.00,,,0.00,0,Wunderground v.1.15,2013-09-04 02:26:00,
2013-09-03 22:31:00,64.8,58.5,29.95,NW,315,1.0,2.0,80,0.00,,,0.00,0,Wunderground v.1.15,2013-09-04 02:31:00,
2013-09-03 22:37:00,65.0,58.7,29.96,NW,315,0.0,2.0,80,0.00,,,0.00,0,Wunderground v.1.15,2013-09-04 02:37:00,
2013-09-03 22:43:00,64.7,58.7,29.96,NW,315,0.0,2.0,81,0.00,,,0.00,0,Wunderground v.1.15,2013-09-04 02:43:00,
2013-09-03 22:48:00,64.5,58.5,29.96,NW,315,0.0,2.0,81,0.00,,,0.00,0,Wunderground v.1.15,2013-09-04 02:48:00,
2013-09-03 22:53:00,64.3,58.3,29.96,NW,315,0.0,2.0,81,0.00,,,0.00,0,Wunderground v.1.15,2013-09-04 02:53:00,
2013-09-03 22:59:00,64.1,58.1,29.96,NW,315,0.0,2.0,81,0.00,,,0.00,0,Wunderground v.1.15,2013-09-04 02:59:00,
2013-09-03 23:05:00,63.8,58.2,29.96,NW,315,0.0,2.0,82,0.00,,,0.00,0,Wunderground v.1.15,2013-09-04 03:05:00,
2013-09-03 23:10:00,63.6,58.0,29.96,NW,315,0.0,2.0,82,0.00,,,0.00,0,Wunderground v.1.15,2013-09-04 03:10:00,
2013-09-03 23:16:00,63.4,57.8,29.96,NW,315,0.0,2.0,82,0.00,,,0.00,0,Wunderground v.1.15,2013-09-04 03:16:00,
2013-09-03 23:22:00,63.2,57.9,29.96,NW,315,0.0,2.0,83,0.00,,,0.00,0,Wunderground v.1.15,2013-09-04 03:22:00,
2013-09-03 23:28:00,63.0,57.8,29.96,NW,315,0.0,2.0,83,0.00,,,0.00,0,Wunderground v.1.15,2013-09-04 03:28:00,
2013-09-03 23:34:00,62.8,57.6,29.96,NW,315,0.0,2.0,83,0.00,,,0.00,0,Wunderground v.1.15,2013-09-04 03:34:00,
2013-09-03 23:40:00,62.5,57.3,29.96,NW,315,0.0,2.0,83,0.00,,,0.00,0,Wunderground v.1.15,2013-09-04 03:40:00,
2013-09-03 23:45:00,62.3,57.1,29.97,NW,315,0.0,2.0,83,0.00,,,0.00,0,Wunderground v.1.15,2013-09-04 03:45:00,
2013-09-03 23:51:00,62.1,56.9,29.96,NW,315,0.0,2.0,83,0.00,,,0.00,0,Wunderground v.1.15,2013-09-04 03:51:00,
2013-09-03 23:57:00,62.0,56.8,29.96,NW,315,0.0,2.0,83,0.00,,,0.00,0,Wunderground v.1.15,2013-09-04 03:57:00,